Time;durP1;ratioP1;P1;durP2;ratioP2;P2;SDS_P1;SDS_P2;PMS_P1;PMS_P2;Temp;Humidity;BMP_temperature;BMP_pressure;BME280_temperature;BME280_humidity;BME280_pressure;Samples;Min_cycle;Max_cycle;Signal;HPM_P1;HPM_P2
2022/12/06 00:01:47;;;;;;;9.10;4.30;;;10.80;99.90;;;;;;4193588;28;20083;-79
2022/12/06 00:04:13;;;;;;;6.13;5.22;;;10.80;99.90;;;;;;4186256;28;20040;-79
2022/12/06 00:06:38;;;;;;;9.10;4.82;;;10.80;99.90;;;;;;4197540;28;20052;-79
2022/12/06 00:08:59;;;;;;;8.13;4.65;;;10.80;99.90;;;;;;4185488;28;20124;-79
2022/12/06 00:11:22;;;;;;;7.72;4.25;;;10.70;99.90;;;;;;4221025;28;20167;-78
2022/12/06 00:13:44;;;;;;;6.43;5.90;;;10.70;99.90;;;;;;4228489;28;20090;-79
2022/12/06 00:16:07;;;;;;;9.95;4.45;;;10.70;99.90;;;;;;4226797;28;20100;-79
2022/12/06 00:18:27;;;;;;;5.93;3.63;;;10.70;99.90;;;;;;4216413;28;20402;-78
2022/12/06 00:20:48;;;;;;;6.38;3.97;;;10.60;99.90;;;;;;4229975;28;20085;-79
2022/12/06 00:23:08;;;;;;;6.30;5.28;;;10.70;99.90;;;;;;4219170;28;20047;-79
2022/12/06 00:25:30;;;;;;;8.30;3.90;;;10.70;99.90;;;;;;4235579;28;20328;-79
2022/12/06 00:27:50;;;;;;;3.70;3.35;;;10.70;99.90;;;;;;4234132;28;20309;-79
2022/12/06 00:30:12;;;;;;;4.43;3.22;;;10.70;99.90;;;;;;4224117;28;20062;-79
2022/12/06 00:32:32;;;;;;;5.60;3.22;;;10.70;99.90;;;;;;4227071;28;20085;-78
2022/12/06 00:34:53;;;;;;;14.43;5.43;;;10.70;99.90;;;;;;4229706;28;20794;-79
2022/12/06 00:37:13;;;;;;;4.05;3.47;;;10.70;99.90;;;;;;4229231;28;20085;-79
2022/12/06 00:39:34;;;;;;;6.45;2.90;;;10.70;99.90;;;;;;4226464;28;20081;-79
2022/12/06 00:41:57;;;;;;;3.70;3.50;;;10.70;99.90;;;;;;4228645;28;20075;-79
2022/12/06 00:44:17;;;;;;;9.18;4.28;;;10.80;99.90;;;;;;4210063;28;20094;-79
2022/12/06 00:46:38;;;;;;;9.25;4.65;;;10.80;99.90;;;;;;4227585;28;20046;-79
2022/12/06 00:49:01;;;;;;;9.98;5.18;;;10.80;99.90;;;;;;4230830;28;20041;-79
2022/12/06 00:51:22;;;;;;;5.60;5.05;;;10.70;99.90;;;;;;4227083;28;20127;-78
2022/12/06 00:53:43;;;;;;;5.97;4.70;;;10.60;99.90;;;;;;4236096;28;20108;-79
2022/12/06 00:56:04;;;;;;;5.90;5.25;;;10.70;99.90;;;;;;4232450;28;20059;-79
2022/12/06 00:58:24;;;;;;;9.77;4.38;;;10.60;99.90;;;;;;4228571;28;20370;-78
2022/12/06 01:00:44;;;;;;;4.75;3.85;;;10.70;99.90;;;;;;4217561;28;20067;-78
2022/12/06 01:03:05;;;;;;;4.20;3.97;;;10.70;99.90;;;;;;4218330;28;20105;-79
2022/12/06 01:05:26;;;;;;;4.95;3.95;;;10.60;99.90;;;;;;4231957;28;20080;-78
2022/12/06 01:07:48;;;;;;;3.45;3.22;;;10.80;99.90;;;;;;4230296;28;20059;-79
2022/12/06 01:10:11;;;;;;;4.60;4.03;;;10.70;99.90;;;;;;4221541;28;20046;-78
2022/12/06 01:12:32;;;;;;;3.88;3.60;;;10.70;99.90;;;;;;4223363;28;20047;-79
2022/12/06 01:14:53;;;;;;;4.90;4.20;;;10.50;99.90;;;;;;4238568;28;20120;-78
2022/12/06 01:17:12;;;;;;;8.82;4.35;;;10.50;99.90;;;;;;4220687;28;20042;-79
2022/12/06 01:19:32;;;;;;;4.53;4.10;;;10.40;99.90;;;;;;4232357;28;20055;-79
2022/12/06 01:21:52;;;;;;;5.93;4.85;;;10.30;99.90;;;;;;4233065;28;20085;-79
2022/12/06 01:24:12;;;;;;;5.78;5.38;;;10.20;99.90;;;;;;4222245;28;20231;-79
2022/12/06 01:26:34;;;;;;;5.75;4.80;;;10.00;99.90;;;;;;4232512;28;20051;-79
2022/12/06 01:28:54;;;;;;;5.32;4.13;;;10.00;99.90;;;;;;4231063;28;20043;-79
2022/12/06 01:31:15;;;;;;;7.80;4.85;;;10.00;99.90;;;;;;4229000;28;20054;-79
2022/12/06 01:33:35;;;;;;;5.57;5.07;;;10.00;99.90;;;;;;4229014;28;20111;-79
2022/12/06 01:35:55;;;;;;;8.55;5.30;;;10.00;99.90;;;;;;4233743;28;20074;-79
2022/12/06 01:38:15;;;;;;;15.73;5.45;;;10.10;99.90;;;;;;4230237;28;20081;-79
2022/12/06 01:40:44;;;;;;;5.20;4.80;;;10.00;99.90;;;;;;4233890;28;20055;-79
2022/12/06 01:43:05;;;;;;;11.75;6.07;;;10.00;99.90;;;;;;4227496;28;20108;-79
2022/12/06 01:45:25;;;;;;;9.00;5.20;;;10.00;99.90;;;;;;4229871;28;20047;-79
2022/12/06 01:47:45;;;;;;;5.95;5.40;;;9.90;99.90;;;;;;4233130;28;20058;-78
2022/12/06 01:50:14;;;;;;;10.43;8.77;;;9.90;99.90;;;;;;4230830;28;20408;-78
2022/12/06 01:52:50;;;;;;;8.35;6.18;;;9.80;99.90;;;;;;4229795;28;20155;-78
2022/12/06 01:55:12;;;;;;;8.85;6.55;;;9.80;99.90;;;;;;4234546;28;20059;-78
2022/12/06 01:57:32;;;;;;;8.55;6.05;;;9.80;99.90;;;;;;4230237;28;20378;-79
2022/12/06 01:59:52;;;;;;;10.35;5.97;;;9.80;99.90;;;;;;4229550;28;20362;-79
2022/12/06 02:02:12;;;;;;;9.90;8.88;;;9.70;99.90;;;;;;4224316;28;20046;-78
2022/12/06 02:04:32;;;;;;;10.13;8.02;;;9.70;99.90;;;;;;4231414;28;20062;-78
2022/12/06 02:06:53;;;;;;;8.93;7.63;;;9.70;99.90;;;;;;4231243;28;20097;-78
2022/12/06 02:09:15;;;;;;;7.03;5.75;;;9.70;99.90;;;;;;4237598;28;20159;-78
2022/12/06 02:11:36;;;;;;;7.65;6.18;;;9.70;99.90;;;;;;4227903;28;20402;-78
2022/12/06 02:13:56;;;;;;;7.53;6.75;;;9.70;99.90;;;;;;4233542;28;20050;-79
2022/12/06 02:16:45;;;;;;;7.45;6.60;;;9.70;99.90;;;;;;4221384;28;20463;-79
2022/12/06 02:19:38;;;;;;;9.07;8.23;;;9.60;99.90;;;;;;4226288;28;20094;-79
2022/12/06 02:22:11;;;;;;;16.38;11.23;;;9.60;99.90;;;;;;4188551;28;20811;-79
2022/12/06 02:25:08;;;;;;;14.05;11.25;;;9.60;99.90;;;;;;4233466;28;20051;-78
2022/12/06 02:27:53;;;;;;;20.92;10.38;;;9.60;99.90;;;;;;4232948;28;20086;-78
2022/12/06 02:30:44;;;;;;;13.65;9.82;;;9.60;99.90;;;;;;4212861;28;20079;-78
2022/12/06 02:33:31;;;;;;;7.93;6.18;;;9.60;99.90;;;;;;4172278;28;20060;-78
2022/12/06 02:36:03;;;;;;;10.23;5.43;;;9.60;99.90;;;;;;4181869;28;20056;-78
2022/12/06 02:38:47;;;;;;;9.07;6.30;;;9.60;99.90;;;;;;4179573;28;20056;-79
2022/12/06 02:41:18;;;;;;;8.20;5.28;;;9.60;99.90;;;;;;4180146;28;20173;-79
2022/12/06 02:43:42;;;;;;;5.93;5.43;;;9.60;99.90;;;;;;4181460;28;20100;-78
2022/12/06 02:46:04;;;;;;;6.10;5.05;;;9.60;99.90;;;;;;4180646;28;20358;-78
2022/12/06 02:48:25;;;;;;;7.72;5.13;;;9.60;99.90;;;;;;4180490;28;20052;-78
2022/12/06 02:50:52;;;;;;;7.13;5.97;;;9.60;99.90;;;;;;4167328;28;20049;-78
2022/12/06 02:53:17;;;;;;;6.70;5.65;;;9.50;99.90;;;;;;4182918;28;20041;-78
2022/12/06 02:55:38;;;;;;;6.10;4.72;;;9.50;99.90;;;;;;4172981;28;20048;-79
2022/12/06 02:57:58;;;;;;;5.47;4.97;;;9.50;99.90;;;;;;4186026;28;20075;-79
2022/12/06 03:00:33;;;;;;;6.25;4.28;;;9.60;99.90;;;;;;4179617;28;20088;-78
2022/12/06 03:03:15;;;;;;;6.47;4.90;;;9.50;99.90;;;;;;4182987;28;20391;-78
2022/12/06 03:06:01;;;;;;;5.75;4.93;;;9.60;99.90;;;;;;4182735;28;20137;-79
2022/12/06 03:08:46;;;;;;;5.55;4.90;;;9.60;99.90;;;;;;4184075;28;20052;-78
2022/12/06 03:11:06;;;;;;;9.75;8.75;;;9.50;99.90;;;;;;4227236;28;20042;-79
2022/12/06 03:13:53;;;;;;;12.52;8.02;;;9.50;99.90;;;;;;4220616;28;20047;-78
2022/12/06 03:16:43;;;;;;;9.75;5.88;;;9.50;99.90;;;;;;4214853;28;20043;-78
2022/12/06 03:19:15;;;;;;;8.80;5.85;;;9.50;99.90;;;;;;4230080;28;20054;-78
2022/12/06 03:21:46;;;;;;;6.95;6.55;;;9.50;99.90;;;;;;4213234;28;20119;-78
2022/12/06 03:24:11;;;;;;;6.53;6.05;;;9.50;99.90;;;;;;4221551;28;20058;-78
2022/12/06 03:26:33;;;;;;;8.85;6.88;;;9.40;99.90;;;;;;4231860;28;20251;-79
2022/12/06 03:28:56;;;;;;;8.60;7.95;;;9.30;99.90;;;;;;4226430;28;20047;-78
2022/12/06 03:31:16;;;;;;;8.60;7.90;;;9.30;99.90;;;;;;4219388;28;20396;-78
2022/12/06 03:33:42;;;;;;;10.38;8.35;;;9.30;99.90;;;;;;4227435;28;20417;-78
2022/12/06 03:36:03;;;;;;;12.45;8.48;;;9.30;99.90;;;;;;4217112;28;20420;-78
2022/12/06 03:38:30;;;;;;;8.63;8.13;;;9.40;99.90;;;;;;4208627;28;20047;-78
2022/12/06 03:40:54;;;;;;;10.77;9.70;;;9.40;99.90;;;;;;4215750;28;20081;-78
2022/12/06 03:43:14;;;;;;;9.43;8.45;;;9.40;99.90;;;;;;4225356;28;20039;-78
2022/12/06 03:46:05;;;;;;;7.25;6.85;;;9.40;99.90;;;;;;4222714;28;20046;-78
2022/12/06 03:48:31;;;;;;;7.47;6.47;;;9.40;99.90;;;;;;4231162;28;20046;-78
2022/12/06 03:51:00;;;;;;;7.68;6.90;;;9.50;99.90;;;;;;4228950;28;20382;-78
2022/12/06 03:53:20;;;;;;;7.47;6.65;;;9.50;99.90;;;;;;4228153;28;20078;-78
2022/12/06 03:55:41;;;;;;;6.20;5.93;;;9.50;99.90;;;;;;4225671;28;20077;-78
2022/12/06 03:58:01;;;;;;;81.55;11.20;;;9.50;99.90;;;;;;4228158;28;20097;-79
2022/12/06 04:00:21;;;;;;;106.40;13.73;;;9.60;99.90;;;;;;4215955;28;20050;-78
2022/12/06 04:02:40;;;;;;;6.78;6.28;;;9.50;99.90;;;;;;4233652;28;20035;-79
2022/12/06 04:05:00;;;;;;;7.00;6.40;;;9.50;99.90;;;;;;4222662;28;20042;-78
2022/12/06 04:07:21;;;;;;;133.82;15.38;;;9.50;99.90;;;;;;4228836;28;20051;-78
2022/12/06 04:10:01;;;;;;;50.55;8.90;;;9.40;99.90;;;;;;4232511;28;20045;-79
2022/12/06 04:15:04;;;;;;;6.38;6.10;;;9.40;99.90;;;;;;4230790;28;20074;-79
2022/12/06 04:20:03;;;;;;;94.35;10.15;;;9.50;99.90;;;;;;4233039;28;20093;-78
2022/12/06 04:25:01;;;;;;;123.28;12.25;;;9.30;99.90;;;;;;4227070;28;20072;-78
2022/12/06 04:40:36;;;;;;;6.25;5.88;;;9.20;99.90;;;;;;4236847;28;20050;-80
2022/12/06 04:45:34;;;;;;;7.13;6.70;;;9.30;99.90;;;;;;4235464;28;20081;-78
2022/12/06 04:47:54;;;;;;;6.97;6.40;;;9.40;99.90;;;;;;4234671;28;20039;-78
2022/12/06 04:50:14;;;;;;;5.55;5.30;;;9.30;99.90;;;;;;4232549;28;20051;-78
2022/12/06 04:52:33;;;;;;;6.25;5.82;;;9.30;99.90;;;;;;4218096;28;20235;-78
2022/12/06 04:54:55;;;;;;;7.85;5.30;;;9.20;99.90;;;;;;4228605;28;20047;-78
2022/12/06 04:57:16;;;;;;;4.85;4.50;;;9.20;99.90;;;;;;4232597;28;20059;-78
2022/12/06 04:59:37;;;;;;;5.88;5.40;;;9.20;99.90;;;;;;4239012;28;20070;-79
2022/12/06 05:01:57;;;;;;;6.53;5.60;;;9.20;99.90;;;;;;4236721;28;20066;-78
2022/12/06 05:04:17;;;;;;;6.28;4.93;;;9.20;99.90;;;;;;4235521;28;20055;-78
2022/12/06 05:06:37;;;;;;;5.72;4.00;;;9.30;99.90;;;;;;4235974;28;20291;-78
2022/12/06 05:08:57;;;;;;;5.35;5.15;;;9.30;99.90;;;;;;4216716;28;20052;-78
2022/12/06 05:11:17;;;;;;;4.32;3.97;;;9.30;99.90;;;;;;4228472;28;20051;-78
2022/12/06 05:13:37;;;;;;;3.47;3.38;;;9.30;99.90;;;;;;4232964;28;20081;-78
2022/12/06 05:15:59;;;;;;;4.85;4.53;;;9.30;99.90;;;;;;4236845;28;20049;-79
2022/12/06 05:18:20;;;;;;;4.78;4.53;;;9.30;99.90;;;;;;4238758;28;20312;-78
2022/12/06 05:20:40;;;;;;;3.88;3.67;;;9.30;99.90;;;;;;4231469;28;20112;-78
2022/12/06 05:23:00;;;;;;;7.57;3.33;;;9.30;99.90;;;;;;4232045;28;20327;-78
2022/12/06 05:25:20;;;;;;;6.35;3.38;;;9.30;99.90;;;;;;4235251;28;20051;-79
2022/12/06 05:27:40;;;;;;;14.38;13.15;;;9.30;99.90;;;;;;4216829;28;20148;-78
2022/12/06 05:30:00;;;;;;;7.72;5.60;;;9.30;99.90;;;;;;4231975;28;20050;-79
2022/12/06 05:32:20;;;;;;;5.50;5.15;;;9.30;99.90;;;;;;4236014;28;20035;-78
2022/12/06 05:34:40;;;;;;;5.70;5.15;;;9.30;99.90;;;;;;4232044;28;20369;-78
2022/12/06 05:36:59;;;;;;;4.20;3.88;;;9.30;99.90;;;;;;4231444;28;20061;-78
2022/12/06 05:39:19;;;;;;;4.28;3.83;;;9.30;99.90;;;;;;4231557;28;20043;-78
2022/12/06 05:41:39;;;;;;;3.72;3.42;;;9.30;99.90;;;;;;4231974;28;20050;-78
2022/12/06 05:43:58;;;;;;;5.30;4.90;;;9.30;99.90;;;;;;4228170;28;20046;-79
2022/12/06 05:46:18;;;;;;;5.65;5.35;;;9.30;99.90;;;;;;4219464;28;20055;-78
2022/12/06 05:48:38;;;;;;;17.65;15.65;;;9.40;99.90;;;;;;4232118;28;20047;-78
2022/12/06 05:50:58;;;;;;;227.65;29.45;;;9.40;99.90;;;;;;4219696;28;20104;-79
2022/12/06 05:53:19;;;;;;;6.72;6.43;;;9.30;99.90;;;;;;4213465;28;20082;-79
2022/12/06 05:55:38;;;;;;;6.72;6.38;;;9.20;99.90;;;;;;4231015;28;20051;-78
2022/12/06 05:57:58;;;;;;;5.38;5.00;;;9.30;99.90;;;;;;4234996;28;20035;-78
2022/12/06 06:00:18;;;;;;;4.93;4.53;;;9.30;99.90;;;;;;4237054;28;20412;-78
2022/12/06 06:02:38;;;;;;;4.53;4.43;;;9.30;99.90;;;;;;4234829;28;20058;-78
2022/12/06 06:04:58;;;;;;;4.45;4.30;;;9.20;99.90;;;;;;4225797;28;20101;-78
2022/12/06 06:07:18;;;;;;;6.30;6.00;;;9.30;99.90;;;;;;4230821;28;20112;-79
2022/12/06 06:09:38;;;;;;;6.80;6.43;;;9.20;99.90;;;;;;4230284;28;20055;-78
2022/12/06 06:11:58;;;;;;;7.75;6.32;;;9.30;99.90;;;;;;4231643;28;20403;-78
2022/12/06 06:14:18;;;;;;;6.90;6.60;;;9.30;99.90;;;;;;4234727;28;20046;-78
2022/12/06 06:16:38;;;;;;;7.40;7.00;;;9.30;99.90;;;;;;4226617;28;20108;-78
2022/12/06 06:19:00;;;;;;;5.55;5.20;;;9.20;99.90;;;;;;4229580;28;20185;-78
2022/12/06 06:21:20;;;;;;;6.05;5.60;;;9.20;99.90;;;;;;4234716;28;20078;-78
2022/12/06 06:23:39;;;;;;;4.82;4.70;;;9.20;99.90;;;;;;4214898;28;20429;-77
2022/12/06 06:25:59;;;;;;;6.25;6.00;;;9.30;99.90;;;;;;4232588;28;20043;-83
2022/12/06 06:28:19;;;;;;;5.35;4.80;;;9.30;99.90;;;;;;4233292;28;20254;-83
2022/12/06 06:30:40;;;;;;;6.75;6.40;;;9.30;99.90;;;;;;4230484;28;20046;-83
2022/12/06 06:33:00;;;;;;;6.90;6.45;;;9.30;99.90;;;;;;4228540;28;20043;-83
2022/12/06 06:35:19;;;;;;;8.60;8.20;;;9.30;99.90;;;;;;4227616;28;20081;-83
2022/12/06 06:37:39;;;;;;;9.30;8.65;;;9.20;99.90;;;;;;4226173;28;20042;-83
2022/12/06 06:39:59;;;;;;;7.80;7.35;;;9.20;99.90;;;;;;4227930;28;20089;-83
2022/12/06 06:42:20;;;;;;;6.18;5.88;;;9.20;99.90;;;;;;4233271;28;20092;-84
2022/12/06 06:44:40;;;;;;;5.47;5.22;;;9.20;99.90;;;;;;4218038;28;20093;-84
2022/12/06 06:47:00;;;;;;;10.10;9.20;;;9.20;99.90;;;;;;4219324;28;20250;-84
2022/12/06 06:49:19;;;;;;;15.68;14.32;;;9.20;99.90;;;;;;4217309;28;20284;-84
2022/12/06 06:51:39;;;;;;;8.55;7.95;;;9.20;99.90;;;;;;4219154;28;20051;-84
2022/12/06 06:53:59;;;;;;;7.18;6.80;;;9.20;99.90;;;;;;4234023;28;20129;-84
2022/12/06 06:56:19;;;;;;;6.80;6.28;;;9.20;99.90;;;;;;4228766;28;20103;-84
2022/12/06 06:58:39;;;;;;;18.42;7.35;;;9.20;99.90;;;;;;4232682;28;20085;-84
2022/12/06 07:01:01;;;;;;;6.03;5.53;;;9.20;99.90;;;;;;4217280;28;20055;-84
2022/12/06 07:03:22;;;;;;;4.50;4.10;;;9.20;99.90;;;;;;4232492;28;20109;-84
2022/12/06 07:05:42;;;;;;;5.13;4.93;;;9.10;99.90;;;;;;4227840;28;20055;-84
2022/12/06 07:08:03;;;;;;;5.60;5.32;;;9.10;99.90;;;;;;4216519;28;20062;-84
2022/12/06 07:10:26;;;;;;;5.43;5.13;;;9.20;99.90;;;;;;4215568;28;20329;-83
2022/12/06 07:12:46;;;;;;;4.78;4.63;;;9.20;99.90;;;;;;4222006;28;20046;-84
2022/12/06 07:15:06;;;;;;;20.48;18.80;;;9.20;99.90;;;;;;4227534;28;20046;-84
2022/12/06 07:17:26;;;;;;;6.85;6.22;;;9.20;99.90;;;;;;4232533;28;20101;-84
2022/12/06 07:19:46;;;;;;;4.60;4.28;;;9.20;99.90;;;;;;4229051;28;20307;-84
2022/12/06 07:22:06;;;;;;;3.70;3.40;;;9.20;99.90;;;;;;4231527;28;20046;-84
2022/12/06 07:24:26;;;;;;;4.82;4.40;;;9.30;99.90;;;;;;4222394;28;20082;-83
2022/12/06 07:26:45;;;;;;;3.90;3.70;;;9.30;99.90;;;;;;4228948;28;20105;-83
2022/12/06 07:29:05;;;;;;;4.82;4.60;;;9.30;99.90;;;;;;4223900;28;20104;-83
2022/12/06 07:31:28;;;;;;;4.38;4.10;;;9.30;99.90;;;;;;4229977;28;20378;-83
2022/12/06 07:33:51;;;;;;;4.60;4.40;;;9.30;99.90;;;;;;4218416;28;20054;-83
2022/12/06 07:36:13;;;;;;;4.28;4.10;;;9.30;99.90;;;;;;4229556;28;20097;-83
2022/12/06 07:38:33;;;;;;;7.45;7.20;;;9.30;99.90;;;;;;4224522;28;20070;-83
2022/12/06 07:40:54;;;;;;;11.38;10.45;;;9.30;99.90;;;;;;4228723;28;20051;-83
2022/12/06 07:46:08;;;;;;;11.50;10.48;;;9.30;99.90;;;;;;4222959;28;20086;-83
2022/12/06 07:48:28;;;;;;;19.98;15.43;;;9.40;99.90;;;;;;4214962;28;20051;-83
2022/12/06 07:50:48;;;;;;;11.95;11.02;;;9.40;99.90;;;;;;4213198;28;20091;-83
2022/12/06 07:53:07;;;;;;;11.23;10.45;;;9.30;99.90;;;;;;4227979;28;20449;-83
2022/12/06 07:55:27;;;;;;;15.23;13.98;;;9.40;99.90;;;;;;4217425;28;20095;-84
2022/12/06 07:57:47;;;;;;;12.90;12.05;;;9.40;99.90;;;;;;4216491;28;20048;-84
2022/12/06 08:00:09;;;;;;;19.70;17.77;;;9.40;99.90;;;;;;4233186;28;20293;-84
2022/12/06 08:02:29;;;;;;;53.78;39.50;;;9.40;99.90;;;;;;4227149;28;20102;-84
2022/12/06 08:04:49;;;;;;;37.80;28.55;;;9.40;99.90;;;;;;4234903;28;20051;-83
2022/12/06 08:07:09;;;;;;;34.20;25.05;;;9.40;99.90;;;;;;4214532;28;20101;-83
2022/12/06 08:09:29;;;;;;;23.88;20.88;;;9.40;99.90;;;;;;4211908;28;20102;-83
2022/12/06 08:11:48;;;;;;;28.27;24.67;;;9.40;99.90;;;;;;4216375;28;20104;-83
2022/12/06 08:14:09;;;;;;;23.92;21.42;;;9.40;99.90;;;;;;4217958;28;20039;-83
2022/12/06 08:16:30;;;;;;;20.35;18.23;;;9.50;99.90;;;;;;4226870;28;20110;-83
2022/12/06 08:18:51;;;;;;;34.70;28.83;;;9.50;99.90;;;;;;4226861;28;20062;-84
2022/12/06 08:21:12;;;;;;;19.50;17.05;;;9.50;99.90;;;;;;4228832;28;20074;-84
2022/12/06 08:23:32;;;;;;;18.13;16.52;;;9.50;99.90;;;;;;4227755;28;20243;-84
2022/12/06 08:25:59;;;;;;;12.97;12.07;;;9.50;99.90;;;;;;4230708;28;20046;-84
2022/12/06 08:28:19;;;;;;;12.77;10.07;;;9.50;99.90;;;;;;4231419;28;20288;-84
2022/12/06 08:30:39;;;;;;;10.20;9.68;;;9.50;99.90;;;;;;4218523;28;20145;-84
2022/12/06 08:32:59;;;;;;;6.25;6.05;;;9.50;99.90;;;;;;4228463;28;20116;-84
2022/12/06 08:35:20;;;;;;;8.65;8.05;;;9.50;99.90;;;;;;4232419;28;20046;-84
2022/12/06 08:37:40;;;;;;;7.63;6.97;;;9.50;99.90;;;;;;4226978;28;20063;-84
2022/12/06 08:39:59;;;;;;;7.57;6.80;;;9.50;99.90;;;;;;4228881;28;20058;-84
2022/12/06 08:42:20;;;;;;;7.63;7.15;;;9.50;99.90;;;;;;4221594;28;20077;-84
2022/12/06 08:44:44;;;;;;;11.50;10.68;;;9.50;99.90;;;;;;4231141;28;20100;-84
2022/12/06 08:47:04;;;;;;;15.50;13.93;;;9.50;99.90;;;;;;4215542;28;20363;-83
2022/12/06 08:49:26;;;;;;;11.00;9.95;;;9.50;99.90;;;;;;4227505;28;20085;-84
2022/12/06 08:51:46;;;;;;;15.70;14.13;;;9.60;99.90;;;;;;4219283;28;20052;-83
2022/12/06 08:54:10;;;;;;;13.25;12.05;;;9.60;99.90;;;;;;4226467;28;20235;-83
2022/12/06 08:56:33;;;;;;;17.80;16.08;;;9.50;99.90;;;;;;4233113;28;20046;-84
2022/12/06 08:58:53;;;;;;;20.70;18.53;;;9.50;99.90;;;;;;4228709;28;20288;-84
2022/12/06 09:01:23;;;;;;;26.38;23.83;;;9.60;99.90;;;;;;4229675;28;20300;-84
2022/12/06 09:03:43;;;;;;;21.17;18.98;;;9.60;99.90;;;;;;4216339;28;20047;-84
2022/12/06 09:06:03;;;;;;;10.77;10.02;;;9.60;99.90;;;;;;4227276;28;20085;-84
2022/12/06 09:08:23;;;;;;;10.20;9.43;;;9.60;99.90;;;;;;4230634;28;20234;-84
2022/12/06 09:10:43;;;;;;;17.67;15.95;;;9.70;99.90;;;;;;4228494;28;20365;-84
2022/12/06 09:13:03;;;;;;;9.10;8.60;;;9.80;99.90;;;;;;4231393;28;20081;-84
2022/12/06 09:15:23;;;;;;;11.75;10.70;;;9.90;99.90;;;;;;4218104;28;20121;-84
2022/12/06 09:17:43;;;;;;;9.75;9.18;;;9.90;99.90;;;;;;4217055;28;20051;-84
2022/12/06 09:20:03;;;;;;;14.10;12.68;;;9.90;99.90;;;;;;4219294;28;20056;-84
2022/12/06 09:22:26;;;;;;;10.60;10.10;;;9.90;99.90;;;;;;4232599;28;20038;-84
2022/12/06 09:24:45;;;;;;;10.07;9.27;;;10.00;99.90;;;;;;4217181;28;20377;-84
2022/12/06 09:27:05;;;;;;;10.02;9.13;;;10.00;99.90;;;;;;4221328;28;20051;-85
2022/12/06 09:29:24;;;;;;;11.55;10.55;;;9.90;99.90;;;;;;4218237;28;20176;-85
2022/12/06 09:31:44;;;;;;;12.73;11.10;;;10.00;99.90;;;;;;4224418;28;20047;-85
2022/12/06 09:34:07;;;;;;;21.58;19.38;;;10.00;99.90;;;;;;4231825;28;20051;-85
2022/12/06 09:36:29;;;;;;;21.92;19.73;;;9.90;99.90;;;;;;4216099;28;20079;-84
2022/12/06 09:39:13;;;;;;;15.82;14.57;;;9.80;99.90;;;;;;4236057;28;20047;-85
2022/12/06 09:42:00;;;;;;;78.55;23.92;;;9.80;99.90;;;;;;4216093;28;20610;-85
2022/12/06 09:44:47;;;;;;;17.42;16.13;;;9.80;99.90;;;;;;4228535;28;20054;-84
2022/12/06 09:47:23;;;;;;;6.53;6.10;;;9.80;99.90;;;;;;4234775;28;20314;-85
2022/12/06 09:50:04;;;;;;;6.63;6.20;;;9.90;99.90;;;;;;4213057;28;20270;-85
2022/12/06 09:52:54;;;;;;;7.57;7.15;;;10.00;99.90;;;;;;4214193;28;20059;-84
2022/12/06 09:55:22;;;;;;;9.20;8.45;;;10.10;99.90;;;;;;4221695;28;20052;-85
2022/12/06 09:58:06;;;;;;;6.68;6.28;;;10.10;99.90;;;;;;4232163;28;20083;-84
2022/12/06 10:00:34;;;;;;;6.13;5.82;;;10.20;99.90;;;;;;4228958;28;20043;-84
2022/12/06 10:03:26;;;;;;;7.85;7.45;;;10.20;99.90;;;;;;4229158;28;20112;-85
2022/12/06 10:05:56;;;;;;;7.57;7.35;;;10.20;99.90;;;;;;4232488;28;20396;-85
2022/12/06 10:08:45;;;;;;;10.73;9.77;;;10.20;99.90;;;;;;4232026;28;20121;-84
2022/12/06 10:11:30;;;;;;;12.80;11.75;;;10.30;99.90;;;;;;4231951;28;20054;-85
2022/12/06 10:14:14;;;;;;;7.95;7.50;;;10.40;99.90;;;;;;4232226;28;20047;-85
2022/12/06 10:16:34;;;;;;;6.30;5.78;;;10.40;99.90;;;;;;4212329;28;20082;-85
2022/12/06 10:19:45;;;;;;;6.35;5.90;;;10.60;99.90;;;;;;4227745;28;20074;-85
2022/12/06 10:22:29;;;;;;;5.43;4.93;;;10.80;99.90;;;;;;4176501;28;20048;-84
2022/12/06 10:25:01;;;;;;;7.93;6.05;;;10.70;99.90;;;;;;4189344;28;20124;-85
2022/12/06 10:27:35;;;;;;;9.75;5.82;;;10.80;99.90;;;;;;4183935;28;20048;-85
2022/12/06 10:29:59;;;;;;;7.10;6.60;;;10.70;99.90;;;;;;4195735;28;20059;-85
2022/12/06 10:32:31;;;;;;;5.57;5.07;;;10.80;99.90;;;;;;4195123;28;20319;-85
2022/12/06 10:35:01;;;;;;;7.35;6.72;;;10.80;99.90;;;;;;4197277;28;20393;-85
2022/12/06 10:37:56;;;;;;;5.90;5.68;;;10.80;99.90;;;;;;4196097;28;20044;-85
2022/12/06 10:40:34;;;;;;;9.30;8.23;;;10.70;99.90;;;;;;4194948;28;20127;-85
2022/12/06 10:43:08;;;;;;;6.47;5.05;;;10.70;99.90;;;;;;4198513;28;20124;-85
2022/12/06 10:48:35;;;;;;;7.97;7.00;;;10.80;99.90;;;;;;4194339;28;20047;-85
2022/12/06 10:51:11;;;;;;;8.75;8.10;;;10.80;99.90;;;;;;4185281;28;20176;-85
2022/12/06 10:53:39;;;;;;;5.47;4.97;;;10.80;99.90;;;;;;4211007;28;20378;-85
2022/12/06 10:56:10;;;;;;;7.00;6.70;;;10.80;99.90;;;;;;4210495;28;20071;-85
2022/12/06 10:58:45;;;;;;;4.82;4.60;;;10.80;99.90;;;;;;4214034;28;20052;-85
2022/12/06 11:01:12;;;;;;;8.00;7.03;;;10.70;99.90;;;;;;4228133;28;20098;-85
2022/12/06 11:03:41;;;;;;;8.32;7.60;;;10.70;99.90;;;;;;4228374;28;20361;-85
2022/12/06 11:06:26;;;;;;;5.22;4.93;;;10.80;99.90;;;;;;4228104;28;20066;-85
2022/12/06 11:08:53;;;;;;;6.18;5.82;;;10.70;99.90;;;;;;4228773;28;20074;-85
2022/12/06 11:11:22;;;;;;;5.50;5.05;;;10.70;99.90;;;;;;4232348;28;20242;-85
2022/12/06 11:13:54;;;;;;;5.65;4.65;;;10.70;99.90;;;;;;4218656;28;20059;-85
2022/12/06 11:16:27;;;;;;;7.13;5.97;;;10.70;99.90;;;;;;4217769;28;20036;-85
2022/12/06 11:18:48;;;;;;;6.03;5.63;;;10.80;99.90;;;;;;4227933;28;20138;-85
2022/12/06 11:21:14;;;;;;;6.60;6.10;;;10.80;99.90;;;;;;4216177;28;20062;-85
2022/12/06 11:23:59;;;;;;;8.85;7.55;;;10.80;99.90;;;;;;4217464;28;20297;-85
2022/12/06 11:26:33;;;;;;;9.43;7.80;;;10.80;99.90;;;;;;4229902;28;20082;-85
2022/12/06 11:29:04;;;;;;;10.85;9.10;;;10.80;99.90;;;;;;4215466;28;20086;-85
2022/12/06 11:31:46;;;;;;;8.18;6.18;;;10.80;99.90;;;;;;4226037;28;20046;-85
2022/12/06 11:34:17;;;;;;;9.98;6.38;;;10.80;99.90;;;;;;4212121;28;20174;-85
2022/12/06 11:36:38;;;;;;;7.45;6.80;;;10.90;99.90;;;;;;4217981;28;20075;-85
2022/12/06 11:38:59;;;;;;;7.72;7.22;;;11.00;99.90;;;;;;4228043;28;20074;-85
2022/12/06 11:41:26;;;;;;;8.05;7.30;;;11.00;99.90;;;;;;4228435;28;20105;-85
2022/12/06 11:43:46;;;;;;;7.00;6.40;;;11.00;99.90;;;;;;4223435;28;20085;-85
2022/12/06 11:46:12;;;;;;;9.35;8.70;;;11.00;99.90;;;;;;4224997;28;20111;-85
2022/12/06 11:48:33;;;;;;;9.30;8.32;;;11.00;99.90;;;;;;4209943;28;20131;-85
2022/12/06 11:50:53;;;;;;;8.40;7.45;;;11.00;99.90;;;;;;4229439;28;20358;-85
2022/12/06 11:53:39;;;;;;;8.13;7.25;;;11.00;99.90;;;;;;4233944;28;20043;-86
2022/12/06 11:56:10;;;;;;;6.72;6.25;;;11.00;99.90;;;;;;4230411;28;20104;-85
2022/12/06 11:58:40;;;;;;;6.88;6.32;;;11.00;99.90;;;;;;4229453;28;20047;-85
2022/12/06 12:01:05;;;;;;;8.93;6.70;;;10.90;99.90;;;;;;4216040;28;20324;-85
2022/12/06 12:03:32;;;;;;;6.90;6.45;;;10.90;99.90;;;;;;4224305;28;20055;-85
2022/12/06 12:06:15;;;;;;;10.02;5.97;;;10.90;99.90;;;;;;4222792;28;20039;-85
2022/12/06 12:08:36;;;;;;;6.55;6.15;;;10.90;99.90;;;;;;4226675;28;20047;-85
2022/12/06 12:11:03;;;;;;;7.47;7.07;;;10.90;99.90;;;;;;4229191;28;20062;-85
2022/12/06 12:16:09;;;;;;;8.65;6.15;;;10.90;99.90;;;;;;4229587;28;20361;-84
2022/12/06 12:18:35;;;;;;;6.22;5.80;;;10.90;99.90;;;;;;4221156;28;20089;-84
2022/12/06 12:20:56;;;;;;;6.30;5.95;;;10.80;99.90;;;;;;4222295;28;20043;-84
2022/12/06 12:23:20;;;;;;;7.53;6.97;;;10.90;99.90;;;;;;4226578;28;20061;-84
2022/12/06 12:25:43;;;;;;;6.40;5.75;;;10.90;99.90;;;;;;4214329;28;20059;-84
2022/12/06 12:28:23;;;;;;;6.13;5.60;;;10.80;99.90;;;;;;4226593;28;20243;-84
2022/12/06 12:31:15;;;;;;;5.93;5.53;;;10.90;99.90;;;;;;4229269;28;20038;-85
2022/12/06 12:33:35;;;;;;;8.52;5.20;;;10.90;99.90;;;;;;4232504;28;20085;-84
2022/12/06 12:36:19;;;;;;;4.65;4.35;;;10.80;99.90;;;;;;4232560;28;20050;-84
2022/12/06 12:38:59;;;;;;;3.75;3.55;;;10.80;99.90;;;;;;4213480;28;20086;-84
2022/12/06 12:41:39;;;;;;;4.05;3.85;;;10.80;99.90;;;;;;4224550;28;20062;-84
2022/12/06 12:44:01;;;;;;;5.10;4.50;;;10.80;99.90;;;;;;4227445;28;20078;-84
2022/12/06 12:46:49;;;;;;;3.47;3.25;;;10.80;99.90;;;;;;4216807;28;20300;-84
2022/12/06 12:49:29;;;;;;;6.50;4.60;;;10.80;99.90;;;;;;4217079;28;20262;-84
2022/12/06 12:51:50;;;;;;;4.50;3.53;;;10.80;99.90;;;;;;4229293;28;20043;-85
2022/12/06 12:54:32;;;;;;;5.68;5.15;;;10.80;99.90;;;;;;4227628;28;20395;-85
2022/12/06 12:56:53;;;;;;;6.35;5.03;;;10.90;99.90;;;;;;4235635;28;20042;-85
2022/12/06 12:59:21;;;;;;;4.03;3.13;;;10.90;99.90;;;;;;4233593;28;20064;-85
2022/12/06 13:01:49;;;;;;;4.15;3.65;;;10.80;99.90;;;;;;4228711;28;20039;-86
2022/12/06 13:04:35;;;;;;;3.83;3.40;;;10.80;99.90;;;;;;4218977;28;20247;-86
2022/12/06 13:07:05;;;;;;;4.07;3.88;;;10.80;99.90;;;;;;4226937;28;20097;-85
2022/12/06 13:09:31;;;;;;;4.65;4.40;;;10.70;99.90;;;;;;4230460;28;20102;-85
2022/12/06 13:11:57;;;;;;;3.78;3.40;;;10.70;99.90;;;;;;4232401;28;20400;-85